sensor_id;sensor_type;location;lat;lon;timestamp;P1;durP1;ratioP1;P2;durP2;ratioP2
60969;SDS011;46841;48.938;9.502;2024-01-27T00:00:43;1.17;;;1.17;;
60969;SDS011;46841;48.938;9.502;2024-01-27T00:03:08;1.10;;;1.10;;
60969;SDS011;46841;48.938;9.502;2024-01-27T00:05:34;1.10;;;1.10;;
60969;SDS011;46841;48.938;9.502;2024-01-27T00:07:59;1.10;;;1.10;;
60969;SDS011;46841;48.938;9.502;2024-01-27T00:10:25;1.10;;;1.10;;
60969;SDS011;46841;48.938;9.502;2024-01-27T00:12:50;1.10;;;1.10;;
60969;SDS011;46841;48.938;9.502;2024-01-27T00:15:16;1.10;;;1.10;;
60969;SDS011;46841;48.938;9.502;2024-01-27T00:17:41;1.10;;;1.10;;
60969;SDS011;46841;48.938;9.502;2024-01-27T00:20:08;1.20;;;1.20;;
60969;SDS011;46841;48.938;9.502;2024-01-27T00:22:33;1.10;;;1.10;;
60969;SDS011;46841;48.938;9.502;2024-01-27T00:24:59;1.10;;;1.10;;
60969;SDS011;46841;48.938;9.502;2024-01-27T00:27:24;1.10;;;1.10;;
60969;SDS011;46841;48.938;9.502;2024-01-27T00:29:50;1.10;;;1.10;;
60969;SDS011;46841;48.938;9.502;2024-01-27T00:32:15;1.10;;;1.10;;
60969;SDS011;46841;48.938;9.502;2024-01-27T00:34:41;1.10;;;1.10;;
60969;SDS011;46841;48.938;9.502;2024-01-27T00:37:06;1.20;;;1.20;;
60969;SDS011;46841;48.938;9.502;2024-01-27T00:39:32;1.20;;;1.20;;
60969;SDS011;46841;48.938;9.502;2024-01-27T00:41:58;1.20;;;1.20;;
60969;SDS011;46841;48.938;9.502;2024-01-27T00:44:24;1.10;;;1.10;;
60969;SDS011;46841;48.938;9.502;2024-01-27T00:46:50;1.20;;;1.20;;
60969;SDS011;46841;48.938;9.502;2024-01-27T00:49:15;1.20;;;1.20;;
60969;SDS011;46841;48.938;9.502;2024-01-27T00:51:41;1.10;;;1.10;;
60969;SDS011;46841;48.938;9.502;2024-01-27T00:54:06;1.20;;;1.20;;
60969;SDS011;46841;48.938;9.502;2024-01-27T00:56:34;1.10;;;1.10;;
60969;SDS011;46841;48.938;9.502;2024-01-27T00:58:59;1.20;;;1.20;;
60969;SDS011;46841;48.938;9.502;2024-01-27T01:01:25;1.20;;;1.20;;
60969;SDS011;46841;48.938;9.502;2024-01-27T01:03:50;1.20;;;1.20;;
60969;SDS011;46841;48.938;9.502;2024-01-27T01:06:16;1.20;;;1.20;;
60969;SDS011;46841;48.938;9.502;2024-01-27T01:08:41;1.20;;;1.20;;
60969;SDS011;46841;48.938;9.502;2024-01-27T01:11:06;1.10;;;1.10;;
60969;SDS011;46841;48.938;9.502;2024-01-27T01:13:32;1.20;;;1.20;;
60969;SDS011;46841;48.938;9.502;2024-01-27T01:15:57;1.20;;;1.20;;
60969;SDS011;46841;48.938;9.502;2024-01-27T01:18:23;1.20;;;1.20;;
60969;SDS011;46841;48.938;9.502;2024-01-27T01:20:48;1.20;;;1.20;;
60969;SDS011;46841;48.938;9.502;2024-01-27T01:23:14;1.20;;;1.20;;
60969;SDS011;46841;48.938;9.502;2024-01-27T01:25:41;1.15;;;1.15;;
60969;SDS011;46841;48.938;9.502;2024-01-27T01:28:06;1.20;;;1.20;;
60969;SDS011;46841;48.938;9.502;2024-01-27T01:30:32;1.17;;;1.17;;
60969;SDS011;46841;48.938;9.502;2024-01-27T01:32:58;1.20;;;1.20;;
60969;SDS011;46841;48.938;9.502;2024-01-27T01:35:23;1.20;;;1.20;;
60969;SDS011;46841;48.938;9.502;2024-01-27T01:37:49;1.20;;;1.20;;
60969;SDS011;46841;48.938;9.502;2024-01-27T01:40:15;1.10;;;1.10;;
60969;SDS011;46841;48.938;9.502;2024-01-27T01:42:41;1.10;;;1.10;;
60969;SDS011;46841;48.938;9.502;2024-01-27T01:45:07;1.20;;;1.20;;
60969;SDS011;46841;48.938;9.502;2024-01-27T01:47:36;1.20;;;1.20;;
60969;SDS011;46841;48.938;9.502;2024-01-27T01:50:01;1.20;;;1.20;;
60969;SDS011;46841;48.938;9.502;2024-01-27T01:52:27;1.20;;;1.20;;
60969;SDS011;46841;48.938;9.502;2024-01-27T01:54:53;1.10;;;1.10;;
60969;SDS011;46841;48.938;9.502;2024-01-27T01:57:19;1.20;;;1.20;;
60969;SDS011;46841;48.938;9.502;2024-01-27T01:59:44;1.20;;;1.20;;
60969;SDS011;46841;48.938;9.502;2024-01-27T02:02:10;1.20;;;1.20;;
60969;SDS011;46841;48.938;9.502;2024-01-27T02:04:43;1.20;;;1.20;;
60969;SDS011;46841;48.938;9.502;2024-01-27T02:07:10;1.20;;;1.20;;
60969;SDS011;46841;48.938;9.502;2024-01-27T02:09:37;1.10;;;1.10;;
60969;SDS011;46841;48.938;9.502;2024-01-27T02:12:03;1.20;;;1.20;;
60969;SDS011;46841;48.938;9.502;2024-01-27T02:14:30;1.20;;;1.20;;
60969;SDS011;46841;48.938;9.502;2024-01-27T02:16:57;1.20;;;1.20;;
60969;SDS011;46841;48.938;9.502;2024-01-27T02:19:23;1.20;;;1.20;;
60969;SDS011;46841;48.938;9.502;2024-01-27T02:21:49;1.20;;;1.20;;
60969;SDS011;46841;48.938;9.502;2024-01-27T02:24:15;1.20;;;1.20;;
60969;SDS011;46841;48.938;9.502;2024-01-27T02:26:41;1.20;;;1.20;;
60969;SDS011;46841;48.938;9.502;2024-01-27T02:29:07;1.10;;;1.10;;
60969;SDS011;46841;48.938;9.502;2024-01-27T02:31:32;1.20;;;1.20;;
60969;SDS011;46841;48.938;9.502;2024-01-27T02:33:58;1.13;;;1.13;;
60969;SDS011;46841;48.938;9.502;2024-01-27T02:36:25;1.20;;;1.20;;
60969;SDS011;46841;48.938;9.502;2024-01-27T02:38:50;1.13;;;1.13;;
60969;SDS011;46841;48.938;9.502;2024-01-27T02:41:17;1.10;;;1.10;;
60969;SDS011;46841;48.938;9.502;2024-01-27T02:43:42;1.17;;;1.17;;
60969;SDS011;46841;48.938;9.502;2024-01-27T02:46:10;1.20;;;1.20;;
60969;SDS011;46841;48.938;9.502;2024-01-27T02:48:39;1.20;;;1.20;;
60969;SDS011;46841;48.938;9.502;2024-01-27T02:51:07;1.20;;;1.20;;
60969;SDS011;46841;48.938;9.502;2024-01-27T02:53:33;1.20;;;1.20;;
60969;SDS011;46841;48.938;9.502;2024-01-27T02:55:59;1.20;;;1.20;;
60969;SDS011;46841;48.938;9.502;2024-01-27T02:58:24;1.20;;;1.20;;
60969;SDS011;46841;48.938;9.502;2024-01-27T03:00:53;1.20;;;1.20;;
60969;SDS011;46841;48.938;9.502;2024-01-27T03:03:18;1.20;;;1.20;;
60969;SDS011;46841;48.938;9.502;2024-01-27T03:05:45;1.10;;;1.10;;
60969;SDS011;46841;48.938;9.502;2024-01-27T03:08:11;1.20;;;1.20;;
60969;SDS011;46841;48.938;9.502;2024-01-27T03:10:36;1.20;;;1.20;;
60969;SDS011;46841;48.938;9.502;2024-01-27T03:13:02;1.20;;;1.20;;
60969;SDS011;46841;48.938;9.502;2024-01-27T03:15:27;1.20;;;1.20;;
60969;SDS011;46841;48.938;9.502;2024-01-27T03:17:53;1.20;;;1.20;;
60969;SDS011;46841;48.938;9.502;2024-01-27T03:20:18;1.20;;;1.20;;
60969;SDS011;46841;48.938;9.502;2024-01-27T03:22:44;1.20;;;1.20;;
60969;SDS011;46841;48.938;9.502;2024-01-27T03:25:09;1.20;;;1.20;;
60969;SDS011;46841;48.938;9.502;2024-01-27T03:27:35;1.30;;;1.30;;
60969;SDS011;46841;48.938;9.502;2024-01-27T03:30:01;1.20;;;1.20;;
60969;SDS011;46841;48.938;9.502;2024-01-27T03:32:31;1.20;;;1.20;;
60969;SDS011;46841;48.938;9.502;2024-01-27T03:34:58;1.20;;;1.20;;
60969;SDS011;46841;48.938;9.502;2024-01-27T03:37:27;1.20;;;1.20;;
60969;SDS011;46841;48.938;9.502;2024-01-27T03:39:52;1.20;;;1.20;;
60969;SDS011;46841;48.938;9.502;2024-01-27T03:42:19;1.30;;;1.30;;
60969;SDS011;46841;48.938;9.502;2024-01-27T03:44:44;1.20;;;1.20;;
60969;SDS011;46841;48.938;9.502;2024-01-27T03:47:10;1.20;;;1.20;;
60969;SDS011;46841;48.938;9.502;2024-01-27T03:49:37;1.20;;;1.20;;
60969;SDS011;46841;48.938;9.502;2024-01-27T03:52:02;1.10;;;1.10;;
60969;SDS011;46841;48.938;9.502;2024-01-27T03:54:28;1.27;;;1.27;;
60969;SDS011;46841;48.938;9.502;2024-01-27T03:56:54;1.20;;;1.20;;
60969;SDS011;46841;48.938;9.502;2024-01-27T03:59:20;1.20;;;1.20;;
60969;SDS011;46841;48.938;9.502;2024-01-27T04:01:45;1.20;;;1.20;;
60969;SDS011;46841;48.938;9.502;2024-01-27T04:04:10;1.20;;;1.20;;
60969;SDS011;46841;48.938;9.502;2024-01-27T04:09:04;1.30;;;1.30;;
60969;SDS011;46841;48.938;9.502;2024-01-27T04:11:30;1.20;;;1.20;;
60969;SDS011;46841;48.938;9.502;2024-01-27T04:13:55;1.20;;;1.20;;
60969;SDS011;46841;48.938;9.502;2024-01-27T04:16:21;1.30;;;1.30;;
60969;SDS011;46841;48.938;9.502;2024-01-27T04:18:46;1.30;;;1.30;;
60969;SDS011;46841;48.938;9.502;2024-01-27T04:21:12;1.25;;;1.25;;
60969;SDS011;46841;48.938;9.502;2024-01-27T04:23:37;1.20;;;1.20;;
60969;SDS011;46841;48.938;9.502;2024-01-27T04:26:03;1.20;;;1.20;;
60969;SDS011;46841;48.938;9.502;2024-01-27T04:28:28;1.20;;;1.20;;
60969;SDS011;46841;48.938;9.502;2024-01-27T04:30:55;1.20;;;1.20;;
60969;SDS011;46841;48.938;9.502;2024-01-27T04:33:21;1.17;;;1.17;;
60969;SDS011;46841;48.938;9.502;2024-01-27T04:35:46;1.20;;;1.20;;
60969;SDS011;46841;48.938;9.502;2024-01-27T04:38:11;1.20;;;1.20;;
60969;SDS011;46841;48.938;9.502;2024-01-27T04:40:38;1.20;;;1.20;;
60969;SDS011;46841;48.938;9.502;2024-01-27T04:43:03;1.30;;;1.30;;
60969;SDS011;46841;48.938;9.502;2024-01-27T04:45:29;1.30;;;1.30;;
60969;SDS011;46841;48.938;9.502;2024-01-27T04:47:55;1.30;;;1.30;;
60969;SDS011;46841;48.938;9.502;2024-01-27T04:50:22;1.30;;;1.30;;
60969;SDS011;46841;48.938;9.502;2024-01-27T04:52:47;1.20;;;1.20;;
60969;SDS011;46841;48.938;9.502;2024-01-27T04:55:13;1.20;;;1.20;;
60969;SDS011;46841;48.938;9.502;2024-01-27T04:57:38;1.20;;;1.20;;
60969;SDS011;46841;48.938;9.502;2024-01-27T05:00:04;1.20;;;1.20;;
60969;SDS011;46841;48.938;9.502;2024-01-27T05:02:32;1.30;;;1.30;;
60969;SDS011;46841;48.938;9.502;2024-01-27T05:04:58;1.30;;;1.30;;
60969;SDS011;46841;48.938;9.502;2024-01-27T05:07:24;1.20;;;1.20;;
60969;SDS011;46841;48.938;9.502;2024-01-27T05:09:50;1.30;;;1.30;;
60969;SDS011;46841;48.938;9.502;2024-01-27T05:12:15;1.30;;;1.30;;
60969;SDS011;46841;48.938;9.502;2024-01-27T05:14:44;1.25;;;1.25;;
60969;SDS011;46841;48.938;9.502;2024-01-27T05:17:13;1.30;;;1.30;;
60969;SDS011;46841;48.938;9.502;2024-01-27T05:19:38;1.20;;;1.20;;
60969;SDS011;46841;48.938;9.502;2024-01-27T05:22:04;1.20;;;1.20;;
60969;SDS011;46841;48.938;9.502;2024-01-27T05:24:32;1.25;;;1.25;;
60969;SDS011;46841;48.938;9.502;2024-01-27T05:26:57;1.20;;;1.20;;
60969;SDS011;46841;48.938;9.502;2024-01-27T05:29:23;1.20;;;1.20;;
60969;SDS011;46841;48.938;9.502;2024-01-27T05:31:48;1.20;;;1.20;;
60969;SDS011;46841;48.938;9.502;2024-01-27T05:34:14;1.20;;;1.20;;
60969;SDS011;46841;48.938;9.502;2024-01-27T05:36:40;1.20;;;1.20;;
60969;SDS011;46841;48.938;9.502;2024-01-27T05:39:06;1.20;;;1.20;;
60969;SDS011;46841;48.938;9.502;2024-01-27T05:41:32;1.30;;;1.30;;
60969;SDS011;46841;48.938;9.502;2024-01-27T05:43:57;1.30;;;1.30;;
60969;SDS011;46841;48.938;9.502;2024-01-27T05:46:26;1.20;;;1.20;;
60969;SDS011;46841;48.938;9.502;2024-01-27T05:48:53;1.30;;;1.30;;
60969;SDS011;46841;48.938;9.502;2024-01-27T05:51:22;1.30;;;1.30;;
60969;SDS011;46841;48.938;9.502;2024-01-27T05:53:57;1.30;;;1.30;;
60969;SDS011;46841;48.938;9.502;2024-01-27T05:56:28;1.20;;;1.20;;
60969;SDS011;46841;48.938;9.502;2024-01-27T05:58:57;1.20;;;1.20;;
60969;SDS011;46841;48.938;9.502;2024-01-27T06:01:23;1.30;;;1.30;;
60969;SDS011;46841;48.938;9.502;2024-01-27T06:03:48;1.20;;;1.20;;
60969;SDS011;46841;48.938;9.502;2024-01-27T06:06:14;1.20;;;1.20;;
60969;SDS011;46841;48.938;9.502;2024-01-27T06:08:40;1.25;;;1.25;;
60969;SDS011;46841;48.938;9.502;2024-01-27T06:11:06;1.30;;;1.30;;
60969;SDS011;46841;48.938;9.502;2024-01-27T06:13:31;1.30;;;1.30;;
60969;SDS011;46841;48.938;9.502;2024-01-27T06:15:58;1.30;;;1.30;;
60969;SDS011;46841;48.938;9.502;2024-01-27T06:18:24;1.30;;;1.30;;
60969;SDS011;46841;48.938;9.502;2024-01-27T06:20:49;1.20;;;1.20;;
60969;SDS011;46841;48.938;9.502;2024-01-27T06:23:15;1.30;;;1.30;;
60969;SDS011;46841;48.938;9.502;2024-01-27T06:25:40;1.20;;;1.20;;
60969;SDS011;46841;48.938;9.502;2024-01-27T06:28:06;1.20;;;1.20;;
60969;SDS011;46841;48.938;9.502;2024-01-27T06:30:31;1.20;;;1.20;;
60969;SDS011;46841;48.938;9.502;2024-01-27T06:32:57;1.30;;;1.30;;
60969;SDS011;46841;48.938;9.502;2024-01-27T06:35:22;1.30;;;1.30;;
60969;SDS011;46841;48.938;9.502;2024-01-27T06:37:48;1.20;;;1.20;;
60969;SDS011;46841;48.938;9.502;2024-01-27T06:40:15;1.40;;;1.40;;
60969;SDS011;46841;48.938;9.502;2024-01-27T06:42:40;1.27;;;1.27;;
60969;SDS011;46841;48.938;9.502;2024-01-27T06:45:06;1.30;;;1.30;;
60969;SDS011;46841;48.938;9.502;2024-01-27T06:47:31;1.20;;;1.20;;
60969;SDS011;46841;48.938;9.502;2024-01-27T06:49:57;1.30;;;1.30;;
60969;SDS011;46841;48.938;9.502;2024-01-27T06:52:22;1.27;;;1.27;;
60969;SDS011;46841;48.938;9.502;2024-01-27T06:54:47;1.20;;;1.20;;
60969;SDS011;46841;48.938;9.502;2024-01-27T06:57:20;1.30;;;1.30;;
60969;SDS011;46841;48.938;9.502;2024-01-27T06:59:47;1.30;;;1.30;;
60969;SDS011;46841;48.938;9.502;2024-01-27T07:02:17;1.20;;;1.20;;
60969;SDS011;46841;48.938;9.502;2024-01-27T07:04:52;1.30;;;1.30;;
60969;SDS011;46841;48.938;9.502;2024-01-27T07:07:25;1.30;;;1.30;;
60969;SDS011;46841;48.938;9.502;2024-01-27T07:09:52;1.30;;;1.30;;
60969;SDS011;46841;48.938;9.502;2024-01-27T07:14:44;1.20;;;1.20;;
60969;SDS011;46841;48.938;9.502;2024-01-27T07:17:10;1.30;;;1.30;;
60969;SDS011;46841;48.938;9.502;2024-01-27T07:19:35;1.20;;;1.20;;
60969;SDS011;46841;48.938;9.502;2024-01-27T07:22:01;1.27;;;1.27;;
60969;SDS011;46841;48.938;9.502;2024-01-27T07:24:28;1.30;;;1.30;;
60969;SDS011;46841;48.938;9.502;2024-01-27T07:26:54;1.23;;;1.23;;
60969;SDS011;46841;48.938;9.502;2024-01-27T07:29:20;1.30;;;1.30;;
60969;SDS011;46841;48.938;9.502;2024-01-27T07:31:49;1.30;;;1.30;;
60969;SDS011;46841;48.938;9.502;2024-01-27T07:34:17;1.30;;;1.30;;
60969;SDS011;46841;48.938;9.502;2024-01-27T07:36:46;1.30;;;1.30;;
60969;SDS011;46841;48.938;9.502;2024-01-27T07:39:13;1.20;;;1.20;;
60969;SDS011;46841;48.938;9.502;2024-01-27T07:41:39;1.30;;;1.30;;
60969;SDS011;46841;48.938;9.502;2024-01-27T07:44:17;1.20;;;1.20;;
60969;SDS011;46841;48.938;9.502;2024-01-27T07:46:46;1.20;;;1.20;;
60969;SDS011;46841;48.938;9.502;2024-01-27T07:49:15;1.20;;;1.20;;
60969;SDS011;46841;48.938;9.502;2024-01-27T07:51:40;1.30;;;1.30;;
60969;SDS011;46841;48.938;9.502;2024-01-27T07:54:05;1.20;;;1.20;;
60969;SDS011;46841;48.938;9.502;2024-01-27T07:56:31;1.20;;;1.20;;
60969;SDS011;46841;48.938;9.502;2024-01-27T07:59:01;1.30;;;1.30;;
60969;SDS011;46841;48.938;9.502;2024-01-27T08:01:26;1.20;;;1.20;;
60969;SDS011;46841;48.938;9.502;2024-01-27T08:03:52;1.20;;;1.20;;
60969;SDS011;46841;48.938;9.502;2024-01-27T08:06:18;1.20;;;1.20;;
60969;SDS011;46841;48.938;9.502;2024-01-27T08:09:13;1.20;;;1.20;;
60969;SDS011;46841;48.938;9.502;2024-01-27T08:11:44;1.27;;;1.27;;
60969;SDS011;46841;48.938;9.502;2024-01-27T08:14:11;1.30;;;1.30;;
60969;SDS011;46841;48.938;9.502;2024-01-27T08:16:42;1.20;;;1.20;;
60969;SDS011;46841;48.938;9.502;2024-01-27T08:19:08;1.20;;;1.20;;
60969;SDS011;46841;48.938;9.502;2024-01-27T08:21:36;1.10;;;1.10;;
60969;SDS011;46841;48.938;9.502;2024-01-27T08:24:01;1.10;;;1.10;;
60969;SDS011;46841;48.938;9.502;2024-01-27T08:26:27;1.10;;;1.10;;
60969;SDS011;46841;48.938;9.502;2024-01-27T08:28:53;1.20;;;1.20;;
60969;SDS011;46841;48.938;9.502;2024-01-27T08:31:21;1.10;;;1.10;;
60969;SDS011;46841;48.938;9.502;2024-01-27T08:33:46;1.20;;;1.20;;
60969;SDS011;46841;48.938;9.502;2024-01-27T08:36:14;1.10;;;1.10;;
60969;SDS011;46841;48.938;9.502;2024-01-27T08:38:45;1.10;;;1.10;;
60969;SDS011;46841;48.938;9.502;2024-01-27T08:42:22;1.10;;;1.10;;
60969;SDS011;46841;48.938;9.502;2024-01-27T08:45:22;1.00;;;1.00;;
60969;SDS011;46841;48.938;9.502;2024-01-27T08:48:00;1.00;;;1.00;;
60969;SDS011;46841;48.938;9.502;2024-01-27T08:50:26;1.00;;;1.00;;
60969;SDS011;46841;48.938;9.502;2024-01-27T08:52:51;1.00;;;1.00;;
60969;SDS011;46841;48.938;9.502;2024-01-27T08:55:17;1.00;;;1.00;;
60969;SDS011;46841;48.938;9.502;2024-01-27T08:57:48;0.90;;;0.90;;
60969;SDS011;46841;48.938;9.502;2024-01-27T09:00:25;0.90;;;0.90;;
60969;SDS011;46841;48.938;9.502;2024-01-27T09:02:51;1.00;;;1.00;;
60969;SDS011;46841;48.938;9.502;2024-01-27T09:05:17;0.90;;;0.90;;
60969;SDS011;46841;48.938;9.502;2024-01-27T09:07:42;0.90;;;0.90;;
60969;SDS011;46841;48.938;9.502;2024-01-27T09:10:08;0.80;;;0.80;;
60969;SDS011;46841;48.938;9.502;2024-01-27T09:13:22;0.70;;;0.70;;
60969;SDS011;46841;48.938;9.502;2024-01-27T09:17:09;0.90;;;0.90;;
60969;SDS011;46841;48.938;9.502;2024-01-27T09:44:06;0.70;;;0.70;;
60969;SDS011;46841;48.938;9.502;2024-01-27T09:48:15;0.77;;;0.77;;
60969;SDS011;46841;48.938;9.502;2024-01-27T09:51:00;0.70;;;0.70;;
60969;SDS011;46841;48.938;9.502;2024-01-27T09:54:20;0.70;;;0.70;;
60969;SDS011;46841;48.938;9.502;2024-01-27T09:57:01;0.70;;;0.70;;
60969;SDS011;46841;48.938;9.502;2024-01-27T10:00:58;0.70;;;0.70;;
60969;SDS011;46841;48.938;9.502;2024-01-27T10:04:14;0.70;;;0.70;;
60969;SDS011;46841;48.938;9.502;2024-01-27T10:07:19;0.70;;;0.70;;
60969;SDS011;46841;48.938;9.502;2024-01-27T10:11:22;0.70;;;0.70;;
60969;SDS011;46841;48.938;9.502;2024-01-27T10:15:03;0.60;;;0.60;;
60969;SDS011;46841;48.938;9.502;2024-01-27T10:18:06;0.60;;;0.60;;
60969;SDS011;46841;48.938;9.502;2024-01-27T10:20:32;0.60;;;0.60;;
60969;SDS011;46841;48.938;9.502;2024-01-27T10:23:09;0.50;;;0.50;;
60969;SDS011;46841;48.938;9.502;2024-01-27T10:25:38;0.50;;;0.50;;
60969;SDS011;46841;48.938;9.502;2024-01-27T10:28:05;0.40;;;0.40;;
60969;SDS011;46841;48.938;9.502;2024-01-27T10:30:42;0.40;;;0.40;;
60969;SDS011;46841;48.938;9.502;2024-01-27T10:33:11;0.43;;;0.43;;
60969;SDS011;46841;48.938;9.502;2024-01-27T10:35:57;0.40;;;0.40;;
60969;SDS011;46841;48.938;9.502;2024-01-27T10:38:32;0.47;;;0.47;;
60969;SDS011;46841;48.938;9.502;2024-01-27T10:41:01;0.45;;;0.45;;
60969;SDS011;46841;48.938;9.502;2024-01-27T10:43:37;0.40;;;0.40;;
60969;SDS011;46841;48.938;9.502;2024-01-27T10:46:08;0.40;;;0.40;;
60969;SDS011;46841;48.938;9.502;2024-01-27T10:48:34;0.40;;;0.40;;
60969;SDS011;46841;48.938;9.502;2024-01-27T10:51:09;0.40;;;0.40;;
60969;SDS011;46841;48.938;9.502;2024-01-27T10:53:36;0.40;;;0.40;;
60969;SDS011;46841;48.938;9.502;2024-01-27T10:56:04;0.40;;;0.40;;
60969;SDS011;46841;48.938;9.502;2024-01-27T10:58:35;0.30;;;0.30;;
60969;SDS011;46841;48.938;9.502;2024-01-27T11:01:10;0.30;;;0.30;;
60969;SDS011;46841;48.938;9.502;2024-01-27T11:03:38;0.40;;;0.40;;
60969;SDS011;46841;48.938;9.502;2024-01-27T11:06:05;0.40;;;0.40;;
60969;SDS011;46841;48.938;9.502;2024-01-27T11:08:31;0.40;;;0.40;;
60969;SDS011;46841;48.938;9.502;2024-01-27T11:10:59;0.30;;;0.30;;
60969;SDS011;46841;48.938;9.502;2024-01-27T11:13:26;0.40;;;0.40;;
60969;SDS011;46841;48.938;9.502;2024-01-27T11:15:54;0.32;;;0.32;;
60969;SDS011;46841;48.938;9.502;2024-01-27T11:18:20;0.30;;;0.30;;
60969;SDS011;46841;48.938;9.502;2024-01-27T11:20:45;0.40;;;0.40;;
60969;SDS011;46841;48.938;9.502;2024-01-27T11:23:14;0.38;;;0.38;;
60969;SDS011;46841;48.938;9.502;2024-01-27T11:25:40;0.30;;;0.30;;
60969;SDS011;46841;48.938;9.502;2024-01-27T11:28:12;0.30;;;0.30;;
60969;SDS011;46841;48.938;9.502;2024-01-27T11:30:39;0.30;;;0.30;;
60969;SDS011;46841;48.938;9.502;2024-01-27T11:33:05;0.30;;;0.30;;
60969;SDS011;46841;48.938;9.502;2024-01-27T11:35:30;0.40;;;0.40;;
60969;SDS011;46841;48.938;9.502;2024-01-27T11:37:56;0.40;;;0.40;;
60969;SDS011;46841;48.938;9.502;2024-01-27T11:40:21;0.30;;;0.30;;
60969;SDS011;46841;48.938;9.502;2024-01-27T11:42:56;0.30;;;0.30;;
60969;SDS011;46841;48.938;9.502;2024-01-27T11:45:22;0.30;;;0.30;;
60969;SDS011;46841;48.938;9.502;2024-01-27T11:47:48;0.40;;;0.40;;
60969;SDS011;46841;48.938;9.502;2024-01-27T11:50:19;0.40;;;0.40;;
60969;SDS011;46841;48.938;9.502;2024-01-27T11:52:45;0.40;;;0.40;;
60969;SDS011;46841;48.938;9.502;2024-01-27T11:55:13;0.40;;;0.40;;
60969;SDS011;46841;48.938;9.502;2024-01-27T11:57:40;0.30;;;0.30;;
60969;SDS011;46841;48.938;9.502;2024-01-27T12:00:08;0.40;;;0.40;;
60969;SDS011;46841;48.938;9.502;2024-01-27T12:02:35;0.40;;;0.40;;
60969;SDS011;46841;48.938;9.502;2024-01-27T12:05:00;0.50;;;0.50;;
60969;SDS011;46841;48.938;9.502;2024-01-27T12:07:27;0.40;;;0.40;;
60969;SDS011;46841;48.938;9.502;2024-01-27T12:09:53;0.40;;;0.40;;
60969;SDS011;46841;48.938;9.502;2024-01-27T12:12:20;0.30;;;0.30;;
60969;SDS011;46841;48.938;9.502;2024-01-27T12:19:38;0.50;;;0.50;;
60969;SDS011;46841;48.938;9.502;2024-01-27T12:22:04;0.40;;;0.40;;
60969;SDS011;46841;48.938;9.502;2024-01-27T12:24:43;0.40;;;0.40;;
60969;SDS011;46841;48.938;9.502;2024-01-27T12:27:09;0.40;;;0.40;;
60969;SDS011;46841;48.938;9.502;2024-01-27T12:29:34;0.40;;;0.40;;
60969;SDS011;46841;48.938;9.502;2024-01-27T12:31:59;0.40;;;0.40;;
60969;SDS011;46841;48.938;9.502;2024-01-27T12:34:25;0.40;;;0.40;;
60969;SDS011;46841;48.938;9.502;2024-01-27T12:36:50;0.40;;;0.40;;
60969;SDS011;46841;48.938;9.502;2024-01-27T12:39:17;0.47;;;0.47;;
60969;SDS011;46841;48.938;9.502;2024-01-27T12:41:43;0.50;;;0.50;;
60969;SDS011;46841;48.938;9.502;2024-01-27T12:44:08;0.50;;;0.50;;
60969;SDS011;46841;48.938;9.502;2024-01-27T12:46:33;0.50;;;0.50;;
60969;SDS011;46841;48.938;9.502;2024-01-27T12:48:59;0.40;;;0.40;;
60969;SDS011;46841;48.938;9.502;2024-01-27T12:51:24;0.50;;;0.50;;
60969;SDS011;46841;48.938;9.502;2024-01-27T12:53:53;0.40;;;0.40;;
60969;SDS011;46841;48.938;9.502;2024-01-27T12:56:19;0.40;;;0.40;;
60969;SDS011;46841;48.938;9.502;2024-01-27T12:58:45;0.40;;;0.40;;
60969;SDS011;46841;48.938;9.502;2024-01-27T13:01:10;0.40;;;0.40;;
60969;SDS011;46841;48.938;9.502;2024-01-27T13:03:36;0.50;;;0.50;;
60969;SDS011;46841;48.938;9.502;2024-01-27T13:06:01;0.40;;;0.40;;
60969;SDS011;46841;48.938;9.502;2024-01-27T13:08:28;0.40;;;0.40;;
60969;SDS011;46841;48.938;9.502;2024-01-27T13:10:54;0.35;;;0.35;;
60969;SDS011;46841;48.938;9.502;2024-01-27T13:13:20;0.40;;;0.40;;
60969;SDS011;46841;48.938;9.502;2024-01-27T13:15:45;0.40;;;0.40;;
60969;SDS011;46841;48.938;9.502;2024-01-27T13:18:11;0.50;;;0.50;;
60969;SDS011;46841;48.938;9.502;2024-01-27T13:20:37;0.40;;;0.40;;
60969;SDS011;46841;48.938;9.502;2024-01-27T13:23:03;0.40;;;0.40;;
60969;SDS011;46841;48.938;9.502;2024-01-27T13:25:28;0.40;;;0.40;;
60969;SDS011;46841;48.938;9.502;2024-01-27T13:27:54;0.47;;;0.47;;
60969;SDS011;46841;48.938;9.502;2024-01-27T13:30:20;0.40;;;0.40;;
60969;SDS011;46841;48.938;9.502;2024-01-27T13:32:46;0.50;;;0.50;;
60969;SDS011;46841;48.938;9.502;2024-01-27T13:35:12;0.50;;;0.50;;
60969;SDS011;46841;48.938;9.502;2024-01-27T13:37:37;0.43;;;0.43;;
60969;SDS011;46841;48.938;9.502;2024-01-27T13:40:03;0.50;;;0.50;;
60969;SDS011;46841;48.938;9.502;2024-01-27T13:42:30;0.50;;;0.50;;
60969;SDS011;46841;48.938;9.502;2024-01-27T13:44:57;0.50;;;0.50;;
60969;SDS011;46841;48.938;9.502;2024-01-27T13:47:22;0.55;;;0.55;;
60969;SDS011;46841;48.938;9.502;2024-01-27T13:49:48;0.50;;;0.50;;
60969;SDS011;46841;48.938;9.502;2024-01-27T13:52:13;0.50;;;0.50;;
60969;SDS011;46841;48.938;9.502;2024-01-27T13:57:06;0.60;;;0.60;;
60969;SDS011;46841;48.938;9.502;2024-01-27T13:59:33;0.55;;;0.55;;
60969;SDS011;46841;48.938;9.502;2024-01-27T14:01:58;0.60;;;0.60;;
60969;SDS011;46841;48.938;9.502;2024-01-27T14:04:24;0.52;;;0.52;;
60969;SDS011;46841;48.938;9.502;2024-01-27T14:06:51;0.50;;;0.50;;
60969;SDS011;46841;48.938;9.502;2024-01-27T14:09:18;0.50;;;0.50;;
60969;SDS011;46841;48.938;9.502;2024-01-27T14:11:47;0.50;;;0.50;;
60969;SDS011;46841;48.938;9.502;2024-01-27T14:14:12;0.50;;;0.50;;
60969;SDS011;46841;48.938;9.502;2024-01-27T14:16:38;0.50;;;0.50;;
60969;SDS011;46841;48.938;9.502;2024-01-27T14:19:04;0.50;;;0.50;;
60969;SDS011;46841;48.938;9.502;2024-01-27T14:21:30;0.50;;;0.50;;
60969;SDS011;46841;48.938;9.502;2024-01-27T14:23:56;0.50;;;0.50;;
60969;SDS011;46841;48.938;9.502;2024-01-27T14:26:29;0.50;;;0.50;;
60969;SDS011;46841;48.938;9.502;2024-01-27T14:28:54;0.43;;;0.43;;
60969;SDS011;46841;48.938;9.502;2024-01-27T14:31:20;0.50;;;0.50;;
60969;SDS011;46841;48.938;9.502;2024-01-27T14:33:46;0.50;;;0.50;;
60969;SDS011;46841;48.938;9.502;2024-01-27T14:36:12;0.50;;;0.50;;
60969;SDS011;46841;48.938;9.502;2024-01-27T14:38:38;0.50;;;0.50;;
60969;SDS011;46841;48.938;9.502;2024-01-27T14:41:04;0.50;;;0.50;;
60969;SDS011;46841;48.938;9.502;2024-01-27T14:43:30;0.50;;;0.50;;
60969;SDS011;46841;48.938;9.502;2024-01-27T14:45:56;0.50;;;0.50;;
60969;SDS011;46841;48.938;9.502;2024-01-27T14:48:21;0.50;;;0.50;;
60969;SDS011;46841;48.938;9.502;2024-01-27T14:50:47;0.60;;;0.60;;
60969;SDS011;46841;48.938;9.502;2024-01-27T14:53:18;0.60;;;0.60;;
60969;SDS011;46841;48.938;9.502;2024-01-27T14:55:44;0.60;;;0.60;;
60969;SDS011;46841;48.938;9.502;2024-01-27T14:58:10;0.40;;;0.40;;
60969;SDS011;46841;48.938;9.502;2024-01-27T15:00:37;0.40;;;0.40;;
60969;SDS011;46841;48.938;9.502;2024-01-27T15:03:05;0.50;;;0.50;;
60969;SDS011;46841;48.938;9.502;2024-01-27T15:05:31;0.60;;;0.60;;
60969;SDS011;46841;48.938;9.502;2024-01-27T15:08:01;0.50;;;0.50;;
60969;SDS011;46841;48.938;9.502;2024-01-27T15:10:27;0.70;;;0.70;;
60969;SDS011;46841;48.938;9.502;2024-01-27T15:12:53;0.60;;;0.60;;
60969;SDS011;46841;48.938;9.502;2024-01-27T15:15:18;0.70;;;0.70;;
60969;SDS011;46841;48.938;9.502;2024-01-27T15:17:43;0.70;;;0.70;;
60969;SDS011;46841;48.938;9.502;2024-01-27T15:20:09;0.80;;;0.80;;
60969;SDS011;46841;48.938;9.502;2024-01-27T15:22:44;0.70;;;0.70;;
60969;SDS011;46841;48.938;9.502;2024-01-27T15:25:10;0.70;;;0.70;;
60969;SDS011;46841;48.938;9.502;2024-01-27T15:27:35;0.80;;;0.80;;
60969;SDS011;46841;48.938;9.502;2024-01-27T15:30:01;0.80;;;0.80;;
60969;SDS011;46841;48.938;9.502;2024-01-27T15:32:27;0.70;;;0.70;;
60969;SDS011;46841;48.938;9.502;2024-01-27T15:34:52;0.80;;;0.80;;